sensor_id;sensor_type;location;lat;lon;timestamp;P1;durP1;ratioP1;P2;durP2;ratioP2
8544;SDS011;4310;51.054;6.994;2022-10-31T00:00:52;46.55;;;43.73;;
8544;SDS011;4310;51.054;6.994;2022-10-31T00:01:56;44.40;;;41.63;;
8544;SDS011;4310;51.054;6.994;2022-10-31T00:04:11;44.75;;;41.53;;
8544;SDS011;4310;51.054;6.994;2022-10-31T00:05:15;45.33;;;42.62;;
8544;SDS011;4310;51.054;6.994;2022-10-31T00:06:19;45.33;;;42.38;;
8544;SDS011;4310;51.054;6.994;2022-10-31T00:07:23;44.63;;;42.00;;
8544;SDS011;4310;51.054;6.994;2022-10-31T00:08:27;47.75;;;45.03;;
8544;SDS011;4310;51.054;6.994;2022-10-31T00:09:31;48.68;;;45.78;;
8544;SDS011;4310;51.054;6.994;2022-10-31T00:10:37;51.37;;;48.58;;
8544;SDS011;4310;51.054;6.994;2022-10-31T00:11:41;55.38;;;52.15;;
8544;SDS011;4310;51.054;6.994;2022-10-31T00:13:56;55.88;;;52.75;;
8544;SDS011;4310;51.054;6.994;2022-10-31T00:15:00;56.85;;;53.50;;
8544;SDS011;4310;51.054;6.994;2022-10-31T00:16:05;57.00;;;53.80;;
8544;SDS011;4310;51.054;6.994;2022-10-31T00:17:10;56.65;;;53.50;;
8544;SDS011;4310;51.054;6.994;2022-10-31T00:18:13;62.15;;;58.65;;
8544;SDS011;4310;51.054;6.994;2022-10-31T00:19:17;61.85;;;58.35;;
8544;SDS011;4310;51.054;6.994;2022-10-31T00:20:21;65.62;;;62.13;;
8544;SDS011;4310;51.054;6.994;2022-10-31T00:21:25;67.50;;;63.60;;
8544;SDS011;4310;51.054;6.994;2022-10-31T00:23:40;72.00;;;68.22;;
8544;SDS011;4310;51.054;6.994;2022-10-31T00:24:44;76.15;;;72.05;;
8544;SDS011;4310;51.054;6.994;2022-10-31T00:25:47;78.07;;;74.07;;
8544;SDS011;4310;51.054;6.994;2022-10-31T00:26:51;77.32;;;73.40;;
8544;SDS011;4310;51.054;6.994;2022-10-31T00:27:55;78.00;;;74.03;;
8544;SDS011;4310;51.054;6.994;2022-10-31T00:28:59;71.60;;;67.85;;
8544;SDS011;4310;51.054;6.994;2022-10-31T00:30:03;71.28;;;67.47;;
8544;SDS011;4310;51.054;6.994;2022-10-31T00:31:08;73.65;;;69.65;;
8544;SDS011;4310;51.054;6.994;2022-10-31T00:32:12;70.70;;;66.90;;
8544;SDS011;4310;51.054;6.994;2022-10-31T00:33:16;73.62;;;69.53;;
8544;SDS011;4310;51.054;6.994;2022-10-31T00:34:19;80.65;;;76.25;;
8544;SDS011;4310;51.054;6.994;2022-10-31T00:35:23;81.72;;;77.53;;
8544;SDS011;4310;51.054;6.994;2022-10-31T00:37:38;77.25;;;73.15;;
8544;SDS011;4310;51.054;6.994;2022-10-31T00:38:42;78.20;;;74.00;;
8544;SDS011;4310;51.054;6.994;2022-10-31T00:39:46;76.65;;;72.78;;
8544;SDS011;4310;51.054;6.994;2022-10-31T00:42:03;75.25;;;71.15;;
8544;SDS011;4310;51.054;6.994;2022-10-31T00:43:07;73.30;;;69.70;;
8544;SDS011;4310;51.054;6.994;2022-10-31T00:44:11;72.30;;;68.67;;
8544;SDS011;4310;51.054;6.994;2022-10-31T00:45:14;69.15;;;65.32;;
8544;SDS011;4310;51.054;6.994;2022-10-31T00:46:18;68.67;;;64.90;;
8544;SDS011;4310;51.054;6.994;2022-10-31T00:47:22;72.10;;;67.97;;
8544;SDS011;4310;51.054;6.994;2022-10-31T00:48:25;73.60;;;69.85;;
8544;SDS011;4310;51.054;6.994;2022-10-31T00:49:29;72.40;;;68.87;;
8544;SDS011;4310;51.054;6.994;2022-10-31T00:50:33;78.22;;;74.12;;
8544;SDS011;4310;51.054;6.994;2022-10-31T00:51:36;79.77;;;75.62;;
8544;SDS011;4310;51.054;6.994;2022-10-31T00:52:40;77.22;;;73.50;;
8544;SDS011;4310;51.054;6.994;2022-10-31T00:53:44;87.35;;;83.10;;
8544;SDS011;4310;51.054;6.994;2022-10-31T00:54:48;81.22;;;76.85;;
8544;SDS011;4310;51.054;6.994;2022-10-31T00:55:53;81.05;;;76.85;;
8544;SDS011;4310;51.054;6.994;2022-10-31T00:58:08;75.90;;;72.03;;
8544;SDS011;4310;51.054;6.994;2022-10-31T00:59:11;79.03;;;74.95;;
8544;SDS011;4310;51.054;6.994;2022-10-31T01:00:16;75.52;;;71.60;;
8544;SDS011;4310;51.054;6.994;2022-10-31T01:02:31;74.20;;;70.37;;
8544;SDS011;4310;51.054;6.994;2022-10-31T01:03:35;74.90;;;71.35;;
8544;SDS011;4310;51.054;6.994;2022-10-31T01:04:40;74.70;;;70.83;;
8544;SDS011;4310;51.054;6.994;2022-10-31T01:05:44;69.15;;;65.20;;
8544;SDS011;4310;51.054;6.994;2022-10-31T01:06:47;66.50;;;62.90;;
8544;SDS011;4310;51.054;6.994;2022-10-31T01:07:51;63.35;;;59.95;;
8544;SDS011;4310;51.054;6.994;2022-10-31T01:08:55;59.85;;;56.42;;
8544;SDS011;4310;51.054;6.994;2022-10-31T01:09:58;54.73;;;51.80;;
8544;SDS011;4310;51.054;6.994;2022-10-31T01:12:14;50.38;;;47.53;;
8544;SDS011;4310;51.054;6.994;2022-10-31T01:13:18;47.88;;;45.03;;
8544;SDS011;4310;51.054;6.994;2022-10-31T01:14:22;45.52;;;42.73;;
8544;SDS011;4310;51.054;6.994;2022-10-31T01:15:25;43.60;;;40.98;;
8544;SDS011;4310;51.054;6.994;2022-10-31T01:16:29;42.55;;;39.90;;
8544;SDS011;4310;51.054;6.994;2022-10-31T01:17:33;40.78;;;38.45;;
8544;SDS011;4310;51.054;6.994;2022-10-31T01:18:36;40.78;;;38.05;;
8544;SDS011;4310;51.054;6.994;2022-10-31T01:19:40;42.50;;;39.92;;
8544;SDS011;4310;51.054;6.994;2022-10-31T01:20:44;42.93;;;40.20;;
8544;SDS011;4310;51.054;6.994;2022-10-31T01:22:59;46.23;;;43.42;;
8544;SDS011;4310;51.054;6.994;2022-10-31T01:24:03;47.10;;;44.33;;
8544;SDS011;4310;51.054;6.994;2022-10-31T01:25:08;49.30;;;46.40;;
8544;SDS011;4310;51.054;6.994;2022-10-31T01:26:12;53.33;;;50.38;;
8544;SDS011;4310;51.054;6.994;2022-10-31T01:27:16;53.17;;;50.15;;
8544;SDS011;4310;51.054;6.994;2022-10-31T01:28:20;57.03;;;53.83;;
8544;SDS011;4310;51.054;6.994;2022-10-31T01:29:24;56.08;;;52.98;;
8544;SDS011;4310;51.054;6.994;2022-10-31T01:30:28;57.60;;;54.65;;
8544;SDS011;4310;51.054;6.994;2022-10-31T01:31:33;59.38;;;56.08;;
8544;SDS011;4310;51.054;6.994;2022-10-31T01:32:37;58.25;;;55.15;;
8544;SDS011;4310;51.054;6.994;2022-10-31T01:34:52;60.75;;;57.65;;
8544;SDS011;4310;51.054;6.994;2022-10-31T01:35:56;62.93;;;59.50;;
8544;SDS011;4310;51.054;6.994;2022-10-31T01:37:00;62.90;;;59.70;;
8544;SDS011;4310;51.054;6.994;2022-10-31T01:38:03;62.27;;;58.95;;
8544;SDS011;4310;51.054;6.994;2022-10-31T01:39:09;67.42;;;63.85;;
8544;SDS011;4310;51.054;6.994;2022-10-31T01:40:13;69.45;;;65.70;;
8544;SDS011;4310;51.054;6.994;2022-10-31T01:41:18;67.78;;;64.17;;
8544;SDS011;4310;51.054;6.994;2022-10-31T01:42:22;65.42;;;62.00;;
8544;SDS011;4310;51.054;6.994;2022-10-31T01:44:56;73.95;;;70.17;;
8544;SDS011;4310;51.054;6.994;2022-10-31T01:46:01;68.45;;;64.95;;
8544;SDS011;4310;51.054;6.994;2022-10-31T01:47:05;70.90;;;67.25;;
8544;SDS011;4310;51.054;6.994;2022-10-31T01:48:11;69.87;;;66.10;;
8544;SDS011;4310;51.054;6.994;2022-10-31T01:49:16;70.75;;;67.00;;
8544;SDS011;4310;51.054;6.994;2022-10-31T01:51:34;67.30;;;63.60;;
8544;SDS011;4310;51.054;6.994;2022-10-31T01:52:40;68.22;;;64.58;;
8544;SDS011;4310;51.054;6.994;2022-10-31T01:53:44;66.47;;;62.98;;
8544;SDS011;4310;51.054;6.994;2022-10-31T01:54:50;69.12;;;65.47;;
8544;SDS011;4310;51.054;6.994;2022-10-31T01:55:54;72.35;;;68.75;;
8544;SDS011;4310;51.054;6.994;2022-10-31T01:56:57;74.72;;;70.72;;
8544;SDS011;4310;51.054;6.994;2022-10-31T01:58:04;71.25;;;67.67;;
8544;SDS011;4310;51.054;6.994;2022-10-31T01:59:09;70.05;;;66.35;;
8544;SDS011;4310;51.054;6.994;2022-10-31T02:00:13;70.87;;;67.20;;
8544;SDS011;4310;51.054;6.994;2022-10-31T02:02:29;77.70;;;73.60;;
8544;SDS011;4310;51.054;6.994;2022-10-31T02:03:33;80.30;;;76.15;;
8544;SDS011;4310;51.054;6.994;2022-10-31T02:04:37;86.37;;;81.95;;
8544;SDS011;4310;51.054;6.994;2022-10-31T02:05:41;84.67;;;80.47;;
8544;SDS011;4310;51.054;6.994;2022-10-31T02:06:48;86.55;;;82.15;;
8544;SDS011;4310;51.054;6.994;2022-10-31T02:07:53;87.85;;;83.45;;
8544;SDS011;4310;51.054;6.994;2022-10-31T02:08:57;88.53;;;84.33;;
8544;SDS011;4310;51.054;6.994;2022-10-31T02:10:03;99.13;;;94.30;;
8544;SDS011;4310;51.054;6.994;2022-10-31T02:11:07;95.10;;;90.70;;
8544;SDS011;4310;51.054;6.994;2022-10-31T02:12:11;98.07;;;93.40;;
8544;SDS011;4310;51.054;6.994;2022-10-31T02:14:27;96.32;;;91.65;;
8544;SDS011;4310;51.054;6.994;2022-10-31T02:15:32;100.82;;;95.97;;
8544;SDS011;4310;51.054;6.994;2022-10-31T02:16:36;96.32;;;91.65;;
8544;SDS011;4310;51.054;6.994;2022-10-31T02:17:39;97.12;;;92.65;;
8544;SDS011;4310;51.054;6.994;2022-10-31T02:18:43;93.67;;;89.37;;
8544;SDS011;4310;51.054;6.994;2022-10-31T02:19:48;92.00;;;87.40;;
8544;SDS011;4310;51.054;6.994;2022-10-31T02:20:55;98.90;;;94.10;;
8544;SDS011;4310;51.054;6.994;2022-10-31T02:22:01;106.27;;;101.38;;
8544;SDS011;4310;51.054;6.994;2022-10-31T02:23:17;109.27;;;104.17;;
8544;SDS011;4310;51.054;6.994;2022-10-31T02:27:03;111.22;;;106.22;;
8544;SDS011;4310;51.054;6.994;2022-10-31T02:29:30;118.47;;;113.05;;
8544;SDS011;4310;51.054;6.994;2022-10-31T02:30:35;121.37;;;115.77;;
8544;SDS011;4310;51.054;6.994;2022-10-31T02:31:40;120.77;;;114.92;;
8544;SDS011;4310;51.054;6.994;2022-10-31T02:32:55;124.15;;;118.45;;
8544;SDS011;4310;51.054;6.994;2022-10-31T02:35:13;117.75;;;112.35;;
8544;SDS011;4310;51.054;6.994;2022-10-31T02:36:19;112.77;;;107.52;;
8544;SDS011;4310;51.054;6.994;2022-10-31T02:37:24;113.12;;;107.95;;
8544;SDS011;4310;51.054;6.994;2022-10-31T02:38:32;110.17;;;104.97;;
8544;SDS011;4310;51.054;6.994;2022-10-31T02:39:36;116.42;;;111.05;;
8544;SDS011;4310;51.054;6.994;2022-10-31T02:41:58;105.60;;;100.65;;
8544;SDS011;4310;51.054;6.994;2022-10-31T02:42:59;106.58;;;101.58;;
8544;SDS011;4310;51.054;6.994;2022-10-31T02:45:17;106.60;;;101.33;;
8544;SDS011;4310;51.054;6.994;2022-10-31T02:46:24;110.32;;;105.22;;
8544;SDS011;4310;51.054;6.994;2022-10-31T02:47:29;109.87;;;104.53;;
8544;SDS011;4310;51.054;6.994;2022-10-31T02:48:33;108.17;;;102.92;;
8544;SDS011;4310;51.054;6.994;2022-10-31T02:49:39;101.85;;;96.80;;
8544;SDS011;4310;51.054;6.994;2022-10-31T02:50:44;90.97;;;86.53;;
8544;SDS011;4310;51.054;6.994;2022-10-31T02:51:48;91.92;;;87.00;;
8544;SDS011;4310;51.054;6.994;2022-10-31T02:52:52;83.22;;;78.78;;
8544;SDS011;4310;51.054;6.994;2022-10-31T02:53:56;84.92;;;80.25;;
8544;SDS011;4310;51.054;6.994;2022-10-31T02:55:09;86.10;;;81.55;;
8544;SDS011;4310;51.054;6.994;2022-10-31T02:56:13;85.53;;;81.02;;
8544;SDS011;4310;51.054;6.994;2022-10-31T02:57:18;83.52;;;79.15;;
8544;SDS011;4310;51.054;6.994;2022-10-31T02:58:22;80.25;;;76.15;;
8544;SDS011;4310;51.054;6.994;2022-10-31T03:00:40;81.20;;;77.00;;
8544;SDS011;4310;51.054;6.994;2022-10-31T03:01:46;78.00;;;73.87;;
8544;SDS011;4310;51.054;6.994;2022-10-31T03:02:53;79.20;;;75.08;;
8544;SDS011;4310;51.054;6.994;2022-10-31T03:04:02;75.12;;;71.12;;
8544;SDS011;4310;51.054;6.994;2022-10-31T03:07:42;78.30;;;74.20;;
8544;SDS011;4310;51.054;6.994;2022-10-31T03:08:47;79.92;;;75.67;;
8544;SDS011;4310;51.054;6.994;2022-10-31T03:09:53;78.20;;;74.40;;
8544;SDS011;4310;51.054;6.994;2022-10-31T03:10:58;82.67;;;78.50;;
8544;SDS011;4310;51.054;6.994;2022-10-31T03:13:17;89.72;;;85.38;;
8544;SDS011;4310;51.054;6.994;2022-10-31T03:14:21;93.45;;;88.87;;
8544;SDS011;4310;51.054;6.994;2022-10-31T03:15:26;99.90;;;94.90;;
8544;SDS011;4310;51.054;6.994;2022-10-31T03:16:33;98.45;;;93.50;;
8544;SDS011;4310;51.054;6.994;2022-10-31T03:17:36;97.08;;;92.40;;
8544;SDS011;4310;51.054;6.994;2022-10-31T03:18:42;95.67;;;91.02;;
8544;SDS011;4310;51.054;6.994;2022-10-31T03:19:47;101.38;;;96.47;;
8544;SDS011;4310;51.054;6.994;2022-10-31T03:20:52;100.67;;;95.83;;
8544;SDS011;4310;51.054;6.994;2022-10-31T03:21:57;100.90;;;95.97;;
8544;SDS011;4310;51.054;6.994;2022-10-31T03:24:14;103.55;;;98.45;;
8544;SDS011;4310;51.054;6.994;2022-10-31T03:25:18;107.27;;;102.15;;
8544;SDS011;4310;51.054;6.994;2022-10-31T03:26:21;103.90;;;98.70;;
8544;SDS011;4310;51.054;6.994;2022-10-31T03:27:36;102.20;;;97.17;;
8544;SDS011;4310;51.054;6.994;2022-10-31T03:28:41;104.97;;;99.87;;
8544;SDS011;4310;51.054;6.994;2022-10-31T03:30:58;104.65;;;99.25;;
8544;SDS011;4310;51.054;6.994;2022-10-31T03:32:04;98.40;;;93.58;;
8544;SDS011;4310;51.054;6.994;2022-10-31T03:33:09;97.85;;;92.75;;
8544;SDS011;4310;51.054;6.994;2022-10-31T03:34:13;99.87;;;94.83;;
8544;SDS011;4310;51.054;6.994;2022-10-31T03:35:19;101.27;;;96.22;;
8544;SDS011;4310;51.054;6.994;2022-10-31T03:36:24;103.78;;;98.60;;
8544;SDS011;4310;51.054;6.994;2022-10-31T03:37:29;100.42;;;95.50;;
8544;SDS011;4310;51.054;6.994;2022-10-31T03:38:33;100.90;;;96.10;;
8544;SDS011;4310;51.054;6.994;2022-10-31T03:39:39;98.15;;;93.17;;
8544;SDS011;4310;51.054;6.994;2022-10-31T03:40:44;99.17;;;94.25;;
8544;SDS011;4310;51.054;6.994;2022-10-31T03:41:49;97.65;;;92.82;;
8544;SDS011;4310;51.054;6.994;2022-10-31T03:42:57;99.13;;;93.92;;
8544;SDS011;4310;51.054;6.994;2022-10-31T03:44:00;99.90;;;94.80;;
8544;SDS011;4310;51.054;6.994;2022-10-31T03:45:06;95.57;;;90.80;;
8544;SDS011;4310;51.054;6.994;2022-10-31T03:46:10;94.85;;;89.85;;
8544;SDS011;4310;51.054;6.994;2022-10-31T03:48:25;96.35;;;91.17;;
8544;SDS011;4310;51.054;6.994;2022-10-31T03:50:43;91.75;;;87.10;;
8544;SDS011;4310;51.054;6.994;2022-10-31T03:51:46;92.17;;;87.15;;
8544;SDS011;4310;51.054;6.994;2022-10-31T03:52:53;90.72;;;85.87;;
8544;SDS011;4310;51.054;6.994;2022-10-31T03:53:57;91.08;;;86.45;;
8544;SDS011;4310;51.054;6.994;2022-10-31T03:55:04;91.02;;;86.42;;
8544;SDS011;4310;51.054;6.994;2022-10-31T03:56:09;94.60;;;89.67;;
8544;SDS011;4310;51.054;6.994;2022-10-31T03:57:14;94.47;;;89.67;;
8544;SDS011;4310;51.054;6.994;2022-10-31T03:58:19;95.95;;;91.12;;
8544;SDS011;4310;51.054;6.994;2022-10-31T03:59:25;93.00;;;88.30;;
8544;SDS011;4310;51.054;6.994;2022-10-31T04:00:30;96.12;;;90.87;;
8544;SDS011;4310;51.054;6.994;2022-10-31T04:01:36;96.97;;;91.78;;
8544;SDS011;4310;51.054;6.994;2022-10-31T04:02:41;91.50;;;86.72;;
8544;SDS011;4310;51.054;6.994;2022-10-31T04:04:57;92.72;;;87.97;;
8544;SDS011;4310;51.054;6.994;2022-10-31T04:06:01;91.55;;;87.00;;
8544;SDS011;4310;51.054;6.994;2022-10-31T04:07:06;93.12;;;88.20;;
8544;SDS011;4310;51.054;6.994;2022-10-31T04:08:11;95.38;;;90.47;;
8544;SDS011;4310;51.054;6.994;2022-10-31T04:09:16;95.42;;;90.47;;
8544;SDS011;4310;51.054;6.994;2022-10-31T04:10:22;99.85;;;94.85;;
8544;SDS011;4310;51.054;6.994;2022-10-31T04:11:29;101.50;;;96.40;;
8544;SDS011;4310;51.054;6.994;2022-10-31T04:12:34;99.52;;;94.37;;
8544;SDS011;4310;51.054;6.994;2022-10-31T04:13:39;103.38;;;98.33;;
8544;SDS011;4310;51.054;6.994;2022-10-31T04:14:44;102.05;;;97.00;;
8544;SDS011;4310;51.054;6.994;2022-10-31T04:15:48;99.83;;;94.80;;
8544;SDS011;4310;51.054;6.994;2022-10-31T04:16:53;95.97;;;91.00;;
8544;SDS011;4310;51.054;6.994;2022-10-31T04:17:58;100.30;;;95.30;;
8544;SDS011;4310;51.054;6.994;2022-10-31T04:19:02;97.20;;;92.00;;
8544;SDS011;4310;51.054;6.994;2022-10-31T04:20:07;98.25;;;93.12;;
8544;SDS011;4310;51.054;6.994;2022-10-31T04:21:10;94.35;;;89.52;;
8544;SDS011;4310;51.054;6.994;2022-10-31T04:23:26;93.33;;;88.52;;
8544;SDS011;4310;51.054;6.994;2022-10-31T04:24:29;94.75;;;89.75;;
8544;SDS011;4310;51.054;6.994;2022-10-31T04:25:33;90.07;;;85.28;;
8544;SDS011;4310;51.054;6.994;2022-10-31T04:26:37;91.72;;;86.80;;
8544;SDS011;4310;51.054;6.994;2022-10-31T04:28:52;90.47;;;85.67;;
8544;SDS011;4310;51.054;6.994;2022-10-31T04:31:08;90.03;;;85.20;;
8544;SDS011;4310;51.054;6.994;2022-10-31T04:32:12;90.30;;;85.45;;
8544;SDS011;4310;51.054;6.994;2022-10-31T04:33:16;89.80;;;85.30;;
8544;SDS011;4310;51.054;6.994;2022-10-31T04:34:19;88.52;;;83.90;;
8544;SDS011;4310;51.054;6.994;2022-10-31T04:35:23;91.85;;;86.67;;
8544;SDS011;4310;51.054;6.994;2022-10-31T04:36:27;92.45;;;87.27;;
8544;SDS011;4310;51.054;6.994;2022-10-31T04:37:30;87.95;;;83.37;;
8544;SDS011;4310;51.054;6.994;2022-10-31T04:38:34;87.35;;;82.65;;
8544;SDS011;4310;51.054;6.994;2022-10-31T04:39:38;86.08;;;81.63;;
8544;SDS011;4310;51.054;6.994;2022-10-31T04:40:41;88.17;;;83.12;;
8544;SDS011;4310;51.054;6.994;2022-10-31T04:41:45;96.02;;;90.83;;
8544;SDS011;4310;51.054;6.994;2022-10-31T04:42:49;94.17;;;88.70;;
8544;SDS011;4310;51.054;6.994;2022-10-31T04:43:53;93.70;;;88.50;;
8544;SDS011;4310;51.054;6.994;2022-10-31T04:44:56;93.52;;;88.30;;
8544;SDS011;4310;51.054;6.994;2022-10-31T04:46:00;84.58;;;79.77;;
8544;SDS011;4310;51.054;6.994;2022-10-31T04:47:04;82.75;;;78.35;;
8544;SDS011;4310;51.054;6.994;2022-10-31T04:48:08;85.72;;;81.08;;
8544;SDS011;4310;51.054;6.994;2022-10-31T04:49:12;84.65;;;79.82;;
8544;SDS011;4310;51.054;6.994;2022-10-31T04:50:16;80.72;;;76.40;;
8544;SDS011;4310;51.054;6.994;2022-10-31T04:51:19;74.00;;;69.77;;
8544;SDS011;4310;51.054;6.994;2022-10-31T04:52:23;71.20;;;67.03;;
8544;SDS011;4310;51.054;6.994;2022-10-31T04:53:27;69.22;;;65.15;;
8544;SDS011;4310;51.054;6.994;2022-10-31T04:54:30;67.05;;;63.05;;
8544;SDS011;4310;51.054;6.994;2022-10-31T04:55:35;67.37;;;63.40;;
8544;SDS011;4310;51.054;6.994;2022-10-31T04:56:39;66.20;;;61.95;;
8544;SDS011;4310;51.054;6.994;2022-10-31T04:57:42;67.70;;;63.70;;
8544;SDS011;4310;51.054;6.994;2022-10-31T04:58:46;69.35;;;65.20;;
8544;SDS011;4310;51.054;6.994;2022-10-31T04:59:50;68.95;;;64.85;;
8544;SDS011;4310;51.054;6.994;2022-10-31T05:00:54;68.83;;;64.37;;
8544;SDS011;4310;51.054;6.994;2022-10-31T05:01:58;68.22;;;64.10;;
8544;SDS011;4310;51.054;6.994;2022-10-31T05:03:02;66.60;;;62.38;;
8544;SDS011;4310;51.054;6.994;2022-10-31T05:05:17;66.47;;;62.80;;
8544;SDS011;4310;51.054;6.994;2022-10-31T05:06:21;64.62;;;60.92;;
8544;SDS011;4310;51.054;6.994;2022-10-31T05:07:25;68.87;;;65.03;;
8544;SDS011;4310;51.054;6.994;2022-10-31T05:08:29;65.22;;;61.53;;
8544;SDS011;4310;51.054;6.994;2022-10-31T05:10:44;63.55;;;59.77;;
8544;SDS011;4310;51.054;6.994;2022-10-31T05:11:48;62.35;;;58.75;;
8544;SDS011;4310;51.054;6.994;2022-10-31T05:12:52;64.30;;;60.60;;
8544;SDS011;4310;51.054;6.994;2022-10-31T05:13:56;63.78;;;59.93;;
8544;SDS011;4310;51.054;6.994;2022-10-31T05:16:11;61.85;;;58.20;;
8544;SDS011;4310;51.054;6.994;2022-10-31T05:17:15;59.40;;;55.90;;
8544;SDS011;4310;51.054;6.994;2022-10-31T05:18:18;60.63;;;57.27;;
8544;SDS011;4310;51.054;6.994;2022-10-31T05:19:25;62.62;;;58.87;;
8544;SDS011;4310;51.054;6.994;2022-10-31T05:20:29;64.00;;;60.43;;
8544;SDS011;4310;51.054;6.994;2022-10-31T05:21:36;62.33;;;58.83;;
8544;SDS011;4310;51.054;6.994;2022-10-31T05:22:42;61.02;;;57.48;;
8544;SDS011;4310;51.054;6.994;2022-10-31T05:23:52;61.55;;;58.05;;
8544;SDS011;4310;51.054;6.994;2022-10-31T05:24:56;58.92;;;55.58;;
8544;SDS011;4310;51.054;6.994;2022-10-31T05:25:59;62.05;;;58.45;;
8544;SDS011;4310;51.054;6.994;2022-10-31T05:28:14;62.43;;;58.83;;
8544;SDS011;4310;51.054;6.994;2022-10-31T05:29:18;62.58;;;59.10;;
8544;SDS011;4310;51.054;6.994;2022-10-31T05:30:23;65.28;;;61.33;;
8544;SDS011;4310;51.054;6.994;2022-10-31T05:31:27;66.05;;;62.38;;
8544;SDS011;4310;51.054;6.994;2022-10-31T05:32:36;67.10;;;63.38;;
8544;SDS011;4310;51.054;6.994;2022-10-31T05:33:40;65.08;;;61.33;;
8544;SDS011;4310;51.054;6.994;2022-10-31T05:34:43;66.00;;;62.10;;
8544;SDS011;4310;51.054;6.994;2022-10-31T05:35:47;70.85;;;66.80;;
8544;SDS011;4310;51.054;6.994;2022-10-31T05:36:52;70.03;;;66.15;;
8544;SDS011;4310;51.054;6.994;2022-10-31T05:37:56;72.40;;;68.40;;
8544;SDS011;4310;51.054;6.994;2022-10-31T05:39:00;74.62;;;70.35;;
8544;SDS011;4310;51.054;6.994;2022-10-31T05:40:05;75.55;;;71.45;;
8544;SDS011;4310;51.054;6.994;2022-10-31T05:41:09;77.08;;;72.97;;
8544;SDS011;4310;51.054;6.994;2022-10-31T05:42:13;79.55;;;75.32;;
8544;SDS011;4310;51.054;6.994;2022-10-31T05:43:18;78.72;;;74.55;;
8544;SDS011;4310;51.054;6.994;2022-10-31T05:44:22;82.15;;;78.05;;
8544;SDS011;4310;51.054;6.994;2022-10-31T05:45:26;83.58;;;78.97;;
8544;SDS011;4310;51.054;6.994;2022-10-31T05:46:29;84.90;;;80.42;;
8544;SDS011;4310;51.054;6.994;2022-10-31T05:47:33;84.87;;;80.17;;
8544;SDS011;4310;51.054;6.994;2022-10-31T05:48:37;86.00;;;81.40;;
8544;SDS011;4310;51.054;6.994;2022-10-31T05:49:41;93.42;;;88.67;;
8544;SDS011;4310;51.054;6.994;2022-10-31T05:50:44;93.58;;;88.55;;
8544;SDS011;4310;51.054;6.994;2022-10-31T05:51:50;96.30;;;91.22;;
8544;SDS011;4310;51.054;6.994;2022-10-31T05:52:57;93.37;;;88.37;;
8544;SDS011;4310;51.054;6.994;2022-10-31T05:54:01;97.60;;;92.35;;
8544;SDS011;4310;51.054;6.994;2022-10-31T05:55:05;99.95;;;94.52;;
8544;SDS011;4310;51.054;6.994;2022-10-31T05:56:09;102.07;;;96.60;;
8544;SDS011;4310;51.054;6.994;2022-10-31T05:58:24;103.05;;;97.85;;
8544;SDS011;4310;51.054;6.994;2022-10-31T05:59:28;102.15;;;96.65;;
8544;SDS011;4310;51.054;6.994;2022-10-31T06:00:32;100.83;;;95.53;;
8544;SDS011;4310;51.054;6.994;2022-10-31T06:01:37;102.65;;;97.55;;
8544;SDS011;4310;51.054;6.994;2022-10-31T06:02:41;102.07;;;96.78;;
8544;SDS011;4310;51.054;6.994;2022-10-31T06:04:56;99.13;;;93.42;;
8544;SDS011;4310;51.054;6.994;2022-10-31T06:06:00;103.12;;;97.25;;
8544;SDS011;4310;51.054;6.994;2022-10-31T06:07:03;101.65;;;96.30;;
8544;SDS011;4310;51.054;6.994;2022-10-31T06:08:07;101.07;;;95.50;;
8544;SDS011;4310;51.054;6.994;2022-10-31T06:09:11;103.30;;;97.70;;
8544;SDS011;4310;51.054;6.994;2022-10-31T06:10:14;106.90;;;101.10;;
8544;SDS011;4310;51.054;6.994;2022-10-31T06:11:18;100.12;;;94.42;;
8544;SDS011;4310;51.054;6.994;2022-10-31T06:12:22;95.22;;;89.45;;
8544;SDS011;4310;51.054;6.994;2022-10-31T06:13:26;93.40;;;88.05;;
8544;SDS011;4310;51.054;6.994;2022-10-31T06:15:41;94.97;;;89.28;;
8544;SDS011;4310;51.054;6.994;2022-10-31T06:18:00;97.37;;;91.92;;
8544;SDS011;4310;51.054;6.994;2022-10-31T06:19:04;100.65;;;94.75;;
8544;SDS011;4310;51.054;6.994;2022-10-31T06:20:08;105.92;;;99.95;;
8544;SDS011;4310;51.054;6.994;2022-10-31T06:21:12;99.95;;;94.28;;
8544;SDS011;4310;51.054;6.994;2022-10-31T06:22:16;100.70;;;94.77;;
8544;SDS011;4310;51.054;6.994;2022-10-31T06:23:20;99.65;;;93.85;;
8544;SDS011;4310;51.054;6.994;2022-10-31T06:24:23;100.00;;;94.43;;
8544;SDS011;4310;51.054;6.994;2022-10-31T06:25:27;98.22;;;92.70;;
8544;SDS011;4310;51.054;6.994;2022-10-31T06:26:31;100.38;;;94.77;;
8544;SDS011;4310;51.054;6.994;2022-10-31T06:27:34;99.37;;;93.70;;
8544;SDS011;4310;51.054;6.994;2022-10-31T06:28:38;96.97;;;91.53;;
8544;SDS011;4310;51.054;6.994;2022-10-31T06:29:42;97.15;;;91.57;;
8544;SDS011;4310;51.054;6.994;2022-10-31T06:30:47;99.13;;;93.55;;
8544;SDS011;4310;51.054;6.994;2022-10-31T06:31:51;98.70;;;92.90;;
8544;SDS011;4310;51.054;6.994;2022-10-31T06:32:58;95.87;;;90.55;;
8544;SDS011;4310;51.054;6.994;2022-10-31T06:35:11;93.90;;;88.50;;
8544;SDS011;4310;51.054;6.994;2022-10-31T06:36:15;91.30;;;86.00;;
8544;SDS011;4310;51.054;6.994;2022-10-31T06:37:19;92.50;;;87.30;;
8544;SDS011;4310;51.054;6.994;2022-10-31T06:38:22;93.40;;;88.10;;
8544;SDS011;4310;51.054;6.994;2022-10-31T06:39:26;95.35;;;89.95;;
8544;SDS011;4310;51.054;6.994;2022-10-31T06:40:30;90.85;;;85.83;;
8544;SDS011;4310;51.054;6.994;2022-10-31T06:41:34;91.67;;;86.30;;
8544;SDS011;4310;51.054;6.994;2022-10-31T06:42:39;91.85;;;86.72;;
8544;SDS011;4310;51.054;6.994;2022-10-31T06:44:54;90.75;;;85.45;;
8544;SDS011;4310;51.054;6.994;2022-10-31T06:45:57;86.30;;;81.37;;
8544;SDS011;4310;51.054;6.994;2022-10-31T06:47:03;90.45;;;85.20;;
8544;SDS011;4310;51.054;6.994;2022-10-31T06:48:06;92.33;;;87.12;;
8544;SDS011;4310;51.054;6.994;2022-10-31T06:49:10;90.40;;;85.40;;
8544;SDS011;4310;51.054;6.994;2022-10-31T06:50:14;85.55;;;80.60;;
8544;SDS011;4310;51.054;6.994;2022-10-31T06:51:18;86.28;;;81.15;;
8544;SDS011;4310;51.054;6.994;2022-10-31T06:52:21;86.47;;;81.37;;
8544;SDS011;4310;51.054;6.994;2022-10-31T06:53:26;83.82;;;78.75;;
8544;SDS011;4310;51.054;6.994;2022-10-31T06:54:32;81.85;;;76.85;;
8544;SDS011;4310;51.054;6.994;2022-10-31T06:56:47;83.30;;;78.47;;
8544;SDS011;4310;51.054;6.994;2022-10-31T06:57:50;81.28;;;76.50;;
8544;SDS011;4310;51.054;6.994;2022-10-31T06:58:54;79.35;;;74.53;;
8544;SDS011;4310;51.054;6.994;2022-10-31T06:59:58;73.52;;;69.22;;
8544;SDS011;4310;51.054;6.994;2022-10-31T07:02:13;65.15;;;61.05;;
8544;SDS011;4310;51.054;6.994;2022-10-31T07:04:28;59.15;;;55.65;;
8544;SDS011;4310;51.054;6.994;2022-10-31T07:05:32;59.50;;;55.90;;
8544;SDS011;4310;51.054;6.994;2022-10-31T07:06:36;55.67;;;52.17;;
8544;SDS011;4310;51.054;6.994;2022-10-31T07:07:40;55.85;;;52.05;;
8544;SDS011;4310;51.054;6.994;2022-10-31T07:08:43;50.60;;;47.43;;
8544;SDS011;4310;51.054;6.994;2022-10-31T07:09:47;50.98;;;47.65;;
8544;SDS011;4310;51.054;6.994;2022-10-31T07:12:03;52.13;;;48.52;;
8544;SDS011;4310;51.054;6.994;2022-10-31T07:13:10;48.23;;;45.03;;
8544;SDS011;4310;51.054;6.994;2022-10-31T07:14:11;43.95;;;41.02;;
8544;SDS011;4310;51.054;6.994;2022-10-31T07:15:15;45.03;;;42.08;;
8544;SDS011;4310;51.054;6.994;2022-10-31T07:16:19;45.10;;;41.60;;
8544;SDS011;4310;51.054;6.994;2022-10-31T07:18:35;42.93;;;39.95;;
8544;SDS011;4310;51.054;6.994;2022-10-31T07:19:38;41.02;;;38.10;;
8544;SDS011;4310;51.054;6.994;2022-10-31T07:20:42;41.95;;;39.25;;
8544;SDS011;4310;51.054;6.994;2022-10-31T07:21:46;36.80;;;34.27;;
8544;SDS011;4310;51.054;6.994;2022-10-31T07:24:02;35.20;;;32.35;;
8544;SDS011;4310;51.054;6.994;2022-10-31T07:25:06;34.70;;;32.10;;
8544;SDS011;4310;51.054;6.994;2022-10-31T07:26:10;34.70;;;32.00;;